createdAt,value
2022-12-25T00:00:27.437Z,10.90
2022-12-25T00:02:54.730Z,10.90
2022-12-25T00:05:21.930Z,10.90
2022-12-25T00:07:48.622Z,10.90
2022-12-25T00:10:15.278Z,10.90
2022-12-25T00:12:41.994Z,10.90
2022-12-25T00:15:09.165Z,10.90
2022-12-25T00:17:35.918Z,10.90
2022-12-25T00:20:02.629Z,10.90
2022-12-25T00:22:29.962Z,10.90
2022-12-25T00:24:56.681Z,10.90
2022-12-25T00:27:26.383Z,10.90
2022-12-25T00:29:53.035Z,10.90
2022-12-25T00:32:19.750Z,10.90
2022-12-25T00:34:47.859Z,11.00
2022-12-25T00:37:14.577Z,10.90
2022-12-25T00:39:41.304Z,11.00
2022-12-25T00:42:09.183Z,10.90
2022-12-25T00:44:35.991Z,10.90
2022-12-25T00:47:03.141Z,10.90
2022-12-25T00:49:29.899Z,10.90
2022-12-25T00:51:56.637Z,10.90
2022-12-25T00:54:23.318Z,10.90
2022-12-25T00:56:50.106Z,10.90
2022-12-25T00:59:16.800Z,10.90
2022-12-25T01:01:43.804Z,10.90
2022-12-25T01:04:11.248Z,10.80
2022-12-25T01:06:38.100Z,10.80
2022-12-25T01:09:04.817Z,10.80
2022-12-25T01:11:31.752Z,10.80
2022-12-25T01:13:58.642Z,10.80
2022-12-25T01:16:25.382Z,10.90
2022-12-25T01:18:52.148Z,10.80
2022-12-25T01:21:19.108Z,10.90
2022-12-25T01:23:45.795Z,10.90
2022-12-25T01:26:13.485Z,10.90
2022-12-25T01:28:40.305Z,10.80
2022-12-25T01:31:09.913Z,10.80
2022-12-25T01:33:36.641Z,10.80
2022-12-25T01:36:03.954Z,10.80
2022-12-25T01:38:30.702Z,10.80
2022-12-25T01:40:57.443Z,10.80
2022-12-25T01:43:29.562Z,10.70
2022-12-25T01:45:56.467Z,10.70
2022-12-25T01:48:30.701Z,10.70
2022-12-25T01:51:03.922Z,10.70
2022-12-25T01:53:30.656Z,10.70
2022-12-25T01:56:04.722Z,10.60
2022-12-25T01:58:31.624Z,10.60
2022-12-25T02:00:58.424Z,10.60
2022-12-25T02:03:25.248Z,10.50
2022-12-25T02:05:52.010Z,10.50
2022-12-25T02:08:19.092Z,10.40
2022-12-25T02:10:45.843Z,10.40
2022-12-25T02:13:13.414Z,10.40
2022-12-25T02:15:55.909Z,10.30
2022-12-25T02:18:51.967Z,10.30
2022-12-25T02:21:33.612Z,10.30
2022-12-25T02:24:17.027Z,10.30
2022-12-25T02:26:52.858Z,10.30
2022-12-25T02:29:48.508Z,10.20
2022-12-25T02:32:26.550Z,10.20
2022-12-25T02:34:58.518Z,10.10
2022-12-25T02:37:36.044Z,10.10
2022-12-25T02:40:06.016Z,10.10
2022-12-25T02:42:49.646Z,10.00
2022-12-25T02:45:18.479Z,10.00
2022-12-25T02:47:45.148Z,10.00
2022-12-25T02:50:12.038Z,10.00
2022-12-25T02:52:38.734Z,10.00
2022-12-25T02:55:17.930Z,10.00
2022-12-25T02:57:47.604Z,10.00
2022-12-25T03:00:14.844Z,10.10
2022-12-25T03:02:41.797Z,10.10
2022-12-25T03:05:10.643Z,10.10
2022-12-25T03:07:38.237Z,10.20
2022-12-25T03:10:07.044Z,10.20
2022-12-25T03:12:51.756Z,10.30
2022-12-25T03:15:18.584Z,10.30
2022-12-25T03:17:45.283Z,10.30
2022-12-25T03:20:12.104Z,10.40
2022-12-25T03:22:38.788Z,10.40
2022-12-25T03:25:06.018Z,10.50
2022-12-25T03:27:33.353Z,10.50
2022-12-25T03:30:00.217Z,10.50
2022-12-25T03:32:45.027Z,10.50
2022-12-25T03:35:38.794Z,10.50
2022-12-25T03:38:47.610Z,10.50
2022-12-25T03:41:33.406Z,10.60
2022-12-25T03:44:22.153Z,10.60
2022-12-25T03:46:52.577Z,10.60
2022-12-25T03:49:25.391Z,10.60
2022-12-25T03:51:51.999Z,10.60
2022-12-25T03:54:20.619Z,10.60
2022-12-25T03:56:47.347Z,10.60
2022-12-25T03:59:19.310Z,10.70
2022-12-25T04:01:50.520Z,10.70
2022-12-25T04:04:17.251Z,10.60
2022-12-25T04:06:43.963Z,10.70
2022-12-25T04:09:10.653Z,10.70
2022-12-25T04:11:37.368Z,10.70
2022-12-25T04:14:04.082Z,10.70
2022-12-25T04:16:31.042Z,10.70
2022-12-25T04:18:57.740Z,10.70
2022-12-25T04:21:24.597Z,10.70
2022-12-25T04:23:51.301Z,10.70
2022-12-25T04:26:18.011Z,10.70
2022-12-25T04:28:44.709Z,10.70
2022-12-25T04:31:11.436Z,10.70
2022-12-25T04:33:38.255Z,10.80
2022-12-25T04:36:05.285Z,10.80
2022-12-25T04:38:32.129Z,10.80
2022-12-25T04:41:00.037Z,10.70
2022-12-25T04:43:26.767Z,10.80
2022-12-25T04:45:54.549Z,10.80
2022-12-25T04:48:21.257Z,10.80
2022-12-25T04:50:48.032Z,10.80
2022-12-25T04:53:15.032Z,10.80
2022-12-25T04:55:41.729Z,10.80
2022-12-25T04:58:08.478Z,10.80
2022-12-25T05:00:35.262Z,10.80
2022-12-25T05:03:02.261Z,10.80
2022-12-25T05:05:29.063Z,10.90
2022-12-25T05:07:56.707Z,10.80
2022-12-25T05:10:23.451Z,10.80
2022-12-25T05:12:50.188Z,10.80
2022-12-25T05:15:16.952Z,10.80
2022-12-25T05:17:43.717Z,10.80
2022-12-25T05:20:10.502Z,10.80
2022-12-25T05:22:37.193Z,10.80
2022-12-25T05:25:04.082Z,10.80
2022-12-25T05:27:30.766Z,10.80
2022-12-25T05:29:57.496Z,10.80
2022-12-25T05:32:24.187Z,10.80
2022-12-25T05:34:50.907Z,10.80
2022-12-25T05:37:17.572Z,10.80
2022-12-25T05:39:44.276Z,10.80
2022-12-25T05:42:10.988Z,10.80
2022-12-25T05:44:37.689Z,10.90
2022-12-25T05:47:04.540Z,10.80
2022-12-25T05:49:31.248Z,10.90
2022-12-25T05:51:57.977Z,10.80
2022-12-25T05:54:24.703Z,10.90
2022-12-25T05:56:51.393Z,10.90
2022-12-25T05:59:18.173Z,10.90
2022-12-25T06:01:44.977Z,10.90
2022-12-25T06:04:12.982Z,10.80
2022-12-25T06:06:40.432Z,10.80
2022-12-25T06:09:07.153Z,10.80
2022-12-25T06:11:33.913Z,10.80
2022-12-25T06:14:00.613Z,10.80
2022-12-25T06:16:28.201Z,10.80
2022-12-25T06:18:57.272Z,10.70
2022-12-25T06:21:23.975Z,10.80
2022-12-25T06:23:50.801Z,10.80
2022-12-25T06:26:18.533Z,10.80
2022-12-25T06:28:45.409Z,10.80
2022-12-25T06:31:14.257Z,10.70
2022-12-25T06:33:41.086Z,10.70
2022-12-25T06:36:18.436Z,10.70
2022-12-25T06:38:45.394Z,10.70
2022-12-25T06:41:13.989Z,10.70
2022-12-25T06:43:40.680Z,10.70
2022-12-25T06:46:09.099Z,10.70
2022-12-25T06:48:36.372Z,10.70
2022-12-25T06:51:03.274Z,10.70
2022-12-25T06:53:33.623Z,10.60
2022-12-25T06:56:11.324Z,10.70
2022-12-25T06:58:38.054Z,10.70
2022-12-25T07:01:08.687Z,10.60
2022-12-25T07:03:35.414Z,10.60
2022-12-25T07:06:02.147Z,10.60
2022-12-25T07:08:28.893Z,10.60
2022-12-25T07:10:55.565Z,10.60
2022-12-25T07:13:22.273Z,10.60
2022-12-25T07:15:55.004Z,10.60
2022-12-25T07:18:21.728Z,10.60
2022-12-25T07:20:48.456Z,10.60
2022-12-25T07:23:15.229Z,10.60
2022-12-25T07:25:41.991Z,10.60
2022-12-25T07:28:08.702Z,10.60
2022-12-25T07:30:35.480Z,10.60
2022-12-25T07:33:02.181Z,10.60
2022-12-25T07:35:28.875Z,10.60
2022-12-25T07:37:56.007Z,10.60
2022-12-25T07:40:22.703Z,10.60
2022-12-25T07:42:49.411Z,10.60
2022-12-25T07:45:16.182Z,10.60
2022-12-25T07:47:43.139Z,10.60
2022-12-25T07:50:10.144Z,10.70
2022-12-25T07:52:43.208Z,10.70
2022-12-25T07:55:10.344Z,10.70
2022-12-25T07:57:37.047Z,10.70
2022-12-25T08:00:04.990Z,10.70
2022-12-25T08:02:31.955Z,10.70
2022-12-25T08:04:58.861Z,10.70
2022-12-25T08:07:25.593Z,10.70
2022-12-25T08:09:52.301Z,10.70
2022-12-25T08:12:19.160Z,10.70
2022-12-25T08:14:45.836Z,10.80
2022-12-25T08:17:12.568Z,10.80
2022-12-25T08:19:39.403Z,10.80
2022-12-25T08:22:06.252Z,10.80
2022-12-25T08:24:32.938Z,10.80
2022-12-25T08:26:59.635Z,10.80
2022-12-25T08:29:26.470Z,10.80
2022-12-25T08:31:53.176Z,10.80
2022-12-25T08:34:19.839Z,10.80
2022-12-25T08:36:46.547Z,10.80
2022-12-25T08:39:13.287Z,10.80
2022-12-25T08:41:39.985Z,10.90
2022-12-25T08:44:06.891Z,10.90
2022-12-25T08:46:33.637Z,10.90
2022-12-25T08:49:00.388Z,10.90
2022-12-25T08:51:27.053Z,10.90
2022-12-25T08:53:53.807Z,10.90
2022-12-25T08:56:20.706Z,10.90
2022-12-25T08:58:47.462Z,10.90
2022-12-25T09:01:14.329Z,10.90
2022-12-25T09:03:41.175Z,10.90
2022-12-25T09:06:10.348Z,10.90
2022-12-25T09:08:39.884Z,10.90
2022-12-25T09:11:14.593Z,10.90
2022-12-25T09:13:41.408Z,10.80
2022-12-25T09:16:09.611Z,10.90
2022-12-25T09:18:36.358Z,10.90
2022-12-25T09:21:04.841Z,10.90
2022-12-25T09:23:32.021Z,10.80
2022-12-25T09:25:59.807Z,10.90
2022-12-25T09:28:26.608Z,10.90
2022-12-25T09:30:53.506Z,10.90
2022-12-25T09:33:21.032Z,10.90
2022-12-25T09:35:58.189Z,10.90
2022-12-25T09:38:25.340Z,11.00
2022-12-25T09:41:16.039Z,11.00
2022-12-25T09:43:48.923Z,11.00
2022-12-25T09:46:16.828Z,11.00
2022-12-25T09:48:48.017Z,11.00
2022-12-25T09:51:15.830Z,11.10
2022-12-25T09:53:52.276Z,11.10
2022-12-25T09:56:23.020Z,11.10
2022-12-25T09:58:49.772Z,11.20
2022-12-25T10:01:33.878Z,11.10
2022-12-25T10:04:27.127Z,11.20
2022-12-25T10:07:12.518Z,11.20
2022-12-25T10:10:04.202Z,11.20
2022-12-25T10:12:36.786Z,11.20
2022-12-25T10:15:24.968Z,11.20
2022-12-25T10:18:30.712Z,11.20
2022-12-25T10:20:58.145Z,11.20
2022-12-25T10:23:24.915Z,11.30
2022-12-25T10:25:52.411Z,11.30
2022-12-25T10:29:20.733Z,11.30
2022-12-25T10:31:49.924Z,11.40
2022-12-25T10:34:16.782Z,11.40
2022-12-25T10:36:46.677Z,11.40
2022-12-25T10:39:21.413Z,11.50
2022-12-25T10:42:02.714Z,11.50
2022-12-25T10:44:29.511Z,11.50
2022-12-25T10:46:59.592Z,11.50
2022-12-25T10:49:37.260Z,11.60
2022-12-25T10:52:04.307Z,11.60
2022-12-25T10:54:35.004Z,11.60
2022-12-25T10:57:16.292Z,11.60
2022-12-25T10:59:47.695Z,11.60
2022-12-25T11:02:26.505Z,11.60
2022-12-25T11:05:10.772Z,11.70
2022-12-25T11:07:38.313Z,11.70
2022-12-25T11:10:17.067Z,11.70
2022-12-25T11:12:43.863Z,11.80
2022-12-25T11:15:39.451Z,11.80
2022-12-25T11:18:18.440Z,11.80
2022-12-25T11:20:58.533Z,11.90
2022-12-25T11:23:26.306Z,11.90
2022-12-25T11:25:56.969Z,11.90
2022-12-25T11:28:24.281Z,11.90
2022-12-25T11:30:54.906Z,11.90
2022-12-25T11:33:21.728Z,12.00
2022-12-25T11:35:50.675Z,12.10
2022-12-25T11:38:17.398Z,12.20
2022-12-25T11:40:49.380Z,12.30
2022-12-25T11:43:23.925Z,12.40
2022-12-25T11:46:13.297Z,12.50
2022-12-25T11:49:00.752Z,12.50
2022-12-25T11:51:31.522Z,12.60
2022-12-25T11:54:14.437Z,12.60
2022-12-25T11:56:41.216Z,12.70
2022-12-25T11:59:28.099Z,12.70
2022-12-25T12:02:18.831Z,12.80
2022-12-25T12:04:45.643Z,12.90
2022-12-25T12:07:25.557Z,12.90
2022-12-25T12:09:55.432Z,13.00
2022-12-25T12:12:35.621Z,13.00
2022-12-25T12:15:17.270Z,13.00
2022-12-25T12:17:44.046Z,13.00
2022-12-25T12:20:26.887Z,13.00
2022-12-25T12:22:53.704Z,13.00
2022-12-25T12:25:20.549Z,12.90
2022-12-25T12:28:01.289Z,12.90
2022-12-25T12:30:34.572Z,12.90
2022-12-25T12:33:02.708Z,12.90
2022-12-25T12:35:37.226Z,13.00
2022-12-25T12:38:18.732Z,13.00
2022-12-25T12:40:58.950Z,12.90
2022-12-25T12:43:36.165Z,12.90
2022-12-25T12:46:30.138Z,12.90
2022-12-25T12:49:21.111Z,12.90
2022-12-25T12:51:47.869Z,12.80
2022-12-25T12:54:18.888Z,12.80
2022-12-25T12:57:24.984Z,12.80
2022-12-25T12:59:51.726Z,12.80
2022-12-25T13:02:37.139Z,12.70
2022-12-25T13:05:05.154Z,12.60
2022-12-25T13:08:02.406Z,12.60
2022-12-25T13:10:41.395Z,12.60
2022-12-25T13:13:30.547Z,12.40
2022-12-25T13:15:57.255Z,12.40
2022-12-25T13:18:25.289Z,12.30
2022-12-25T13:20:57.472Z,12.30
2022-12-25T13:23:34.886Z,12.30
2022-12-25T13:26:06.140Z,12.30
2022-12-25T13:28:34.185Z,12.20
2022-12-25T13:31:13.891Z,12.20
2022-12-25T13:33:41.469Z,12.10
2022-12-25T13:36:14.426Z,12.00
2022-12-25T13:38:45.377Z,12.00
2022-12-25T13:41:15.643Z,12.00
2022-12-25T13:43:43.160Z,12.00
2022-12-25T13:46:14.081Z,12.00
2022-12-25T13:48:41.688Z,11.90
2022-12-25T13:51:15.692Z,11.90
2022-12-25T13:53:43.366Z,12.00
2022-12-25T13:56:13.224Z,11.90
2022-12-25T13:58:39.980Z,11.90
2022-12-25T14:01:06.755Z,11.90
2022-12-25T14:03:43.119Z,11.90
2022-12-25T14:06:27.073Z,11.90
2022-12-25T14:08:54.908Z,11.90
2022-12-25T14:11:23.064Z,11.90
2022-12-25T14:13:51.398Z,11.90
2022-12-25T14:16:18.764Z,11.90
2022-12-25T14:18:56.561Z,11.90
2022-12-25T14:21:43.578Z,11.90
2022-12-25T14:24:14.121Z,12.00
2022-12-25T14:26:40.915Z,12.00
2022-12-25T14:29:17.270Z,12.00
2022-12-25T14:31:45.643Z,11.90
2022-12-25T14:34:19.153Z,11.90
2022-12-25T14:36:45.861Z,11.90
2022-12-25T14:39:41.922Z,11.90
2022-12-25T14:42:21.239Z,11.90
2022-12-25T14:45:07.175Z,11.80
2022-12-25T14:47:49.081Z,11.80
2022-12-25T14:50:21.639Z,11.80
2022-12-25T14:52:48.347Z,11.80
2022-12-25T14:55:23.039Z,11.70
2022-12-25T14:57:56.982Z,11.70
2022-12-25T15:00:24.773Z,11.70
2022-12-25T15:02:52.946Z,11.60
2022-12-25T15:05:33.816Z,11.60
2022-12-25T15:08:19.782Z,11.60
2022-12-25T15:11:03.194Z,11.50
2022-12-25T15:13:30.797Z,11.50
2022-12-25T15:16:12.191Z,11.50
2022-12-25T15:18:40.913Z,11.40
2022-12-25T15:21:14.929Z,11.40
2022-12-25T15:23:41.653Z,11.40
2022-12-25T15:26:12.815Z,11.40
2022-12-25T15:28:39.431Z,11.40
2022-12-25T15:31:20.761Z,11.40
2022-12-25T15:33:47.929Z,11.30
2022-12-25T15:36:14.739Z,11.30
2022-12-25T15:38:41.445Z,11.20
2022-12-25T15:41:22.597Z,11.20
2022-12-25T15:43:49.299Z,11.10
2022-12-25T15:46:16.158Z,11.10
2022-12-25T15:48:42.993Z,11.00
2022-12-25T15:51:09.777Z,10.90
2022-12-25T15:53:36.587Z,10.90
2022-12-25T15:56:03.299Z,10.90
2022-12-25T15:58:29.997Z,10.80
2022-12-25T16:00:56.689Z,10.80
2022-12-25T16:03:23.463Z,10.80
2022-12-25T16:05:50.208Z,10.70
2022-12-25T16:08:16.932Z,10.70
2022-12-25T16:10:43.628Z,10.70
2022-12-25T16:13:10.345Z,10.70
2022-12-25T16:15:37.183Z,10.60
2022-12-25T16:18:04.190Z,10.60
2022-12-25T16:20:30.920Z,10.60
2022-12-25T16:22:57.618Z,10.50
2022-12-25T16:25:24.427Z,10.50
2022-12-25T16:27:51.164Z,10.50
2022-12-25T16:30:18.246Z,10.50
2022-12-25T16:32:48.100Z,10.50
2022-12-25T16:35:14.792Z,10.40
2022-12-25T16:37:41.492Z,10.40
2022-12-25T16:40:08.956Z,10.40
2022-12-25T16:42:36.472Z,10.40
2022-12-25T16:45:03.467Z,10.40
2022-12-25T16:47:30.370Z,10.40
2022-12-25T16:49:57.021Z,10.40
2022-12-25T16:52:23.714Z,10.40
2022-12-25T16:54:50.422Z,10.40
2022-12-25T16:57:17.167Z,10.40
2022-12-25T16:59:43.948Z,10.40
2022-12-25T17:02:15.052Z,10.40
2022-12-25T17:04:41.976Z,10.40
2022-12-25T17:07:08.674Z,10.40
2022-12-25T17:09:42.068Z,10.40
2022-12-25T17:12:10.723Z,10.40
2022-12-25T17:14:37.441Z,10.40
2022-12-25T17:17:04.192Z,10.40
2022-12-25T17:19:30.936Z,10.40
2022-12-25T17:21:57.693Z,10.40
2022-12-25T17:24:24.403Z,10.50
2022-12-25T17:26:51.114Z,10.50
2022-12-25T17:29:21.953Z,10.50
2022-12-25T17:31:49.273Z,10.50
2022-12-25T17:34:15.983Z,10.60
2022-12-25T17:36:42.750Z,10.60
2022-12-25T17:39:09.735Z,10.60
2022-12-25T17:41:36.462Z,10.60
2022-12-25T17:44:03.144Z,10.60
2022-12-25T17:46:32.231Z,10.60
2022-12-25T17:48:59.584Z,10.60
2022-12-25T17:51:26.781Z,10.60
2022-12-25T17:53:55.197Z,10.70
2022-12-25T17:56:22.548Z,10.70
2022-12-25T17:58:56.794Z,10.70
2022-12-25T18:01:24.128Z,10.70
2022-12-25T18:03:51.185Z,10.70
2022-12-25T18:06:21.430Z,10.70
2022-12-25T18:08:48.310Z,10.80
2022-12-25T18:11:17.463Z,10.80
2022-12-25T18:13:44.991Z,10.80
2022-12-25T18:16:12.261Z,10.80
2022-12-25T18:18:39.081Z,10.80
2022-12-25T18:21:06.173Z,10.80
2022-12-25T18:23:32.948Z,10.80
2022-12-25T18:26:03.303Z,10.70
2022-12-25T18:28:30.146Z,10.70
2022-12-25T18:30:56.838Z,10.70
2022-12-25T18:33:23.646Z,10.70
2022-12-25T18:35:50.439Z,10.60
2022-12-25T18:38:17.148Z,10.60
2022-12-25T18:40:45.976Z,10.60
2022-12-25T18:43:12.898Z,10.60
2022-12-25T18:45:39.738Z,10.60
2022-12-25T18:48:06.580Z,10.60
2022-12-25T18:50:39.791Z,10.70
2022-12-25T18:53:06.703Z,10.60
2022-12-25T18:55:33.446Z,10.60
2022-12-25T18:58:00.194Z,10.60
2022-12-25T19:00:26.937Z,10.60
2022-12-25T19:02:57.642Z,10.60
2022-12-25T19:05:24.622Z,10.60
2022-12-25T19:07:51.358Z,10.60
2022-12-25T19:10:18.264Z,10.60
2022-12-25T19:12:44.958Z,10.60
2022-12-25T19:15:11.787Z,10.50
2022-12-25T19:17:38.487Z,10.50
2022-12-25T19:20:05.659Z,10.50
2022-12-25T19:22:32.387Z,10.50
2022-12-25T19:24:59.065Z,10.40
2022-12-25T19:27:25.795Z,10.40
2022-12-25T19:29:52.536Z,10.40
2022-12-25T19:32:19.248Z,10.40
2022-12-25T19:34:45.942Z,10.40
2022-12-25T19:37:12.677Z,10.40
2022-12-25T19:39:39.468Z,10.40
2022-12-25T19:42:06.158Z,10.40
2022-12-25T19:44:33.257Z,10.40
2022-12-25T19:46:59.983Z,10.40
2022-12-25T19:49:26.659Z,10.40
2022-12-25T19:51:53.497Z,10.40
2022-12-25T19:54:20.190Z,10.40
2022-12-25T19:56:47.538Z,10.40
2022-12-25T19:59:14.218Z,10.40
2022-12-25T20:01:41.040Z,10.30
2022-12-25T20:04:08.287Z,10.30
2022-12-25T20:06:35.782Z,10.30
2022-12-25T20:09:04.587Z,10.30
2022-12-25T20:11:31.906Z,10.30
2022-12-25T20:13:58.632Z,10.30
2022-12-25T20:16:25.583Z,10.30
2022-12-25T20:18:52.595Z,10.30
2022-12-25T20:21:20.736Z,10.30
2022-12-25T20:23:48.609Z,10.30
2022-12-25T20:26:15.969Z,10.30
2022-12-25T20:28:42.807Z,10.30
2022-12-25T20:31:15.385Z,10.30
2022-12-25T20:33:42.110Z,10.30
2022-12-25T20:36:09.190Z,10.40
2022-12-25T20:38:35.915Z,10.40
2022-12-25T20:41:29.498Z,10.40
2022-12-25T20:43:56.711Z,10.40
2022-12-25T20:46:24.175Z,10.40
2022-12-25T20:48:50.967Z,10.40
2022-12-25T20:51:19.608Z,10.40
2022-12-25T20:53:46.550Z,10.40
2022-12-25T20:56:14.142Z,10.40
2022-12-25T20:58:40.982Z,10.40
2022-12-25T21:01:09.088Z,10.40
2022-12-25T21:03:36.036Z,10.40
2022-12-25T21:06:02.766Z,10.40
2022-12-25T21:08:29.686Z,10.40
2022-12-25T21:10:57.204Z,10.40
2022-12-25T21:13:24.320Z,10.40
2022-12-25T21:15:51.926Z,10.40
2022-12-25T21:18:20.059Z,10.40
2022-12-25T21:20:47.520Z,10.40
2022-12-25T21:23:14.795Z,10.40
2022-12-25T21:25:41.575Z,10.40
2022-12-25T21:28:08.386Z,10.30
2022-12-25T21:30:35.122Z,10.30
2022-12-25T21:33:01.915Z,10.30
2022-12-25T21:35:28.589Z,10.30
2022-12-25T21:37:55.291Z,10.20
2022-12-25T21:40:22.030Z,10.20
2022-12-25T21:42:48.771Z,10.20
2022-12-25T21:45:15.532Z,10.20
2022-12-25T21:48:02.753Z,10.10
2022-12-25T21:50:28.921Z,10.10
2022-12-25T21:52:55.617Z,10.10
2022-12-25T21:55:22.287Z,10.10
2022-12-25T21:57:49.006Z,10.10
2022-12-25T22:00:15.868Z,10.10
2022-12-25T22:02:42.683Z,10.10
2022-12-25T22:05:09.529Z,10.20
2022-12-25T22:07:36.246Z,10.10
2022-12-25T22:10:03.002Z,10.10
2022-12-25T22:12:34.011Z,10.10
2022-12-25T22:15:02.358Z,10.10
2022-12-25T22:17:30.802Z,10.10
2022-12-25T22:19:57.540Z,10.10
2022-12-25T22:22:28.705Z,10.10
2022-12-25T22:24:57.691Z,10.10
2022-12-25T22:27:24.846Z,10.00
2022-12-25T22:29:51.675Z,10.00
2022-12-25T22:32:19.358Z,9.90
2022-12-25T22:34:46.114Z,9.90
2022-12-25T22:37:16.806Z,9.90
2022-12-25T22:39:43.570Z,9.90
2022-12-25T22:42:10.290Z,9.80
2022-12-25T22:44:37.079Z,9.80
2022-12-25T22:47:03.854Z,9.80
2022-12-25T22:49:30.677Z,9.80
2022-12-25T22:51:57.396Z,9.80
2022-12-25T22:54:24.622Z,9.80
2022-12-25T22:56:52.305Z,9.80
2022-12-25T22:59:20.438Z,9.70
2022-12-25T23:01:47.164Z,9.70
2022-12-25T23:04:14.043Z,9.70
2022-12-25T23:06:40.782Z,9.80
2022-12-25T23:09:08.117Z,9.80
2022-12-25T23:11:35.560Z,9.90
2022-12-25T23:14:02.351Z,9.90
2022-12-25T23:16:29.157Z,9.90
2022-12-25T23:18:56.075Z,9.90
2022-12-25T23:21:22.936Z,9.90
2022-12-25T23:23:49.642Z,9.90
2022-12-25T23:26:16.856Z,9.90
2022-12-25T23:28:43.569Z,9.90
2022-12-25T23:31:10.330Z,9.90
2022-12-25T23:33:37.084Z,9.90
2022-12-25T23:36:03.966Z,9.90
2022-12-25T23:38:30.662Z,9.90
2022-12-25T23:40:57.376Z,9.90
2022-12-25T23:43:24.083Z,9.90
2022-12-25T23:45:50.786Z,9.90
2022-12-25T23:48:17.478Z,9.90
2022-12-25T23:50:44.188Z,9.90
2022-12-25T23:53:10.991Z,9.90
2022-12-25T23:55:37.770Z,10.00
2022-12-25T23:58:04.756Z,9.90
